sensor_id;sensor_type;location;lat;lon;timestamp;pressure;altitude;pressure_sealevel;temperature;humidity
28004;BME280;15330;51.234;6.754;2023-08-20T00:01:42;101456.41;;;22.16;96.52
28004;BME280;15330;51.234;6.754;2023-08-20T00:04:08;101463.22;;;22.07;96.69
28004;BME280;15330;51.234;6.754;2023-08-20T00:06:34;101456.28;;;22.11;96.86
28004;BME280;15330;51.234;6.754;2023-08-20T00:08:59;101457.75;;;22.07;97.48
28004;BME280;15330;51.234;6.754;2023-08-20T00:11:25;101459.00;;;22.11;97.51
28004;BME280;15330;51.234;6.754;2023-08-20T00:13:50;101462.25;;;22.20;97.36
28004;BME280;15330;51.234;6.754;2023-08-20T00:16:16;101461.88;;;22.16;97.51
28004;BME280;15330;51.234;6.754;2023-08-20T00:18:42;101467.72;;;22.20;97.36
28004;BME280;15330;51.234;6.754;2023-08-20T00:21:07;101469.38;;;22.21;97.52
28004;BME280;15330;51.234;6.754;2023-08-20T00:23:34;101468.91;;;22.24;97.06
28004;BME280;15330;51.234;6.754;2023-08-20T00:26:00;101468.91;;;22.24;97.17
28004;BME280;15330;51.234;6.754;2023-08-20T00:28:25;101456.59;;;22.21;97.41
28004;BME280;15330;51.234;6.754;2023-08-20T00:30:51;101461.22;;;22.21;97.26
28004;BME280;15330;51.234;6.754;2023-08-20T00:33:17;101459.69;;;22.25;97.08
28004;BME280;15330;51.234;6.754;2023-08-20T00:35:42;101457.31;;;22.10;97.19
28004;BME280;15330;51.234;6.754;2023-08-20T00:38:08;101457.25;;;22.17;97.44
28004;BME280;15330;51.234;6.754;2023-08-20T00:40:33;101458.69;;;22.19;97.22
28004;BME280;15330;51.234;6.754;2023-08-20T00:42:58;101457.88;;;22.19;97.94
28004;BME280;15330;51.234;6.754;2023-08-20T00:45:24;101452.84;;;22.16;97.75
28004;BME280;15330;51.234;6.754;2023-08-20T00:47:51;101456.03;;;22.13;98.13
28004;BME280;15330;51.234;6.754;2023-08-20T00:50:16;101455.81;;;22.14;98.36
28004;BME280;15330;51.234;6.754;2023-08-20T00:52:42;101449.50;;;22.14;98.14
28004;BME280;15330;51.234;6.754;2023-08-20T00:55:11;101441.81;;;22.11;98.14
28004;BME280;15330;51.234;6.754;2023-08-20T00:57:38;101446.69;;;22.02;98.45
28004;BME280;15330;51.234;6.754;2023-08-20T01:00:05;101441.47;;;22.01;98.69
28004;BME280;15330;51.234;6.754;2023-08-20T01:02:38;101455.88;;;22.08;98.49
28004;BME280;15330;51.234;6.754;2023-08-20T01:05:05;101455.88;;;22.08;98.70
28004;BME280;15330;51.234;6.754;2023-08-20T01:13:14;101457.75;;;22.07;99.12
28004;BME280;15330;51.234;6.754;2023-08-20T01:15:40;101454.41;;;22.05;99.19
28004;BME280;15330;51.234;6.754;2023-08-20T01:18:05;101448.81;;;22.00;99.60
28004;BME280;15330;51.234;6.754;2023-08-20T01:20:36;101448.81;;;22.00;99.57
28004;BME280;15330;51.234;6.754;2023-08-20T01:23:22;101464.56;;;21.98;99.74
28004;BME280;15330;51.234;6.754;2023-08-20T01:28:31;101457.22;;;21.92;100.00
28004;BME280;15330;51.234;6.754;2023-08-20T01:30:59;101449.09;;;21.85;100.00
28004;BME280;15330;51.234;6.754;2023-08-20T01:33:29;101449.06;;;21.60;100.00
28004;BME280;15330;51.234;6.754;2023-08-20T01:35:55;101457.38;;;21.72;100.00
28004;BME280;15330;51.234;6.754;2023-08-20T01:38:20;101459.16;;;21.85;100.00
28004;BME280;15330;51.234;6.754;2023-08-20T01:40:46;101462.91;;;21.90;100.00
28004;BME280;15330;51.234;6.754;2023-08-20T01:43:12;101465.06;;;21.82;100.00
28004;BME280;15330;51.234;6.754;2023-08-20T01:45:37;101474.59;;;21.66;100.00
28004;BME280;15330;51.234;6.754;2023-08-20T01:48:03;101466.34;;;21.79;100.00
28004;BME280;15330;51.234;6.754;2023-08-20T01:50:31;101463.34;;;21.87;100.00
28004;BME280;15330;51.234;6.754;2023-08-20T01:52:56;101469.22;;;21.84;100.00
28004;BME280;15330;51.234;6.754;2023-08-20T01:55:22;101472.94;;;21.65;100.00
28004;BME280;15330;51.234;6.754;2023-08-20T01:57:47;101477.31;;;21.66;100.00
28004;BME280;15330;51.234;6.754;2023-08-20T02:00:13;101478.44;;;21.58;100.00
28004;BME280;15330;51.234;6.754;2023-08-20T02:02:38;101470.69;;;21.55;100.00
28004;BME280;15330;51.234;6.754;2023-08-20T02:05:04;101481.16;;;21.58;100.00
28004;BME280;15330;51.234;6.754;2023-08-20T02:07:29;101479.34;;;21.46;100.00
28004;BME280;15330;51.234;6.754;2023-08-20T02:09:54;101479.13;;;21.47;100.00
28004;BME280;15330;51.234;6.754;2023-08-20T02:12:20;101476.56;;;21.52;100.00
28004;BME280;15330;51.234;6.754;2023-08-20T02:14:45;101487.66;;;21.57;100.00
28004;BME280;15330;51.234;6.754;2023-08-20T02:17:11;101490.50;;;21.69;100.00
28004;BME280;15330;51.234;6.754;2023-08-20T02:19:38;101492.16;;;21.70;100.00
28004;BME280;15330;51.234;6.754;2023-08-20T02:22:03;101484.13;;;21.82;100.00
28004;BME280;15330;51.234;6.754;2023-08-20T02:24:29;101493.94;;;21.89;100.00
28004;BME280;15330;51.234;6.754;2023-08-20T02:26:57;101497.25;;;21.91;100.00
28004;BME280;15330;51.234;6.754;2023-08-20T02:29:23;101515.25;;;21.92;100.00
28004;BME280;15330;51.234;6.754;2023-08-20T02:31:48;101520.13;;;21.90;100.00
28004;BME280;15330;51.234;6.754;2023-08-20T02:34:14;101519.50;;;21.88;100.00
28004;BME280;15330;51.234;6.754;2023-08-20T02:36:40;101523.91;;;21.89;100.00
28004;BME280;15330;51.234;6.754;2023-08-20T02:39:05;101523.28;;;21.87;100.00
28004;BME280;15330;51.234;6.754;2023-08-20T02:41:36;101518.75;;;21.75;100.00
28004;BME280;15330;51.234;6.754;2023-08-20T02:44:02;101517.63;;;21.82;100.00
28004;BME280;15330;51.234;6.754;2023-08-20T02:46:28;101521.66;;;21.80;100.00
28004;BME280;15330;51.234;6.754;2023-08-20T02:48:53;101515.81;;;21.76;100.00
28004;BME280;15330;51.234;6.754;2023-08-20T02:51:19;101531.72;;;21.79;100.00
28004;BME280;15330;51.234;6.754;2023-08-20T02:53:44;101523.78;;;21.71;100.00
28004;BME280;15330;51.234;6.754;2023-08-20T02:56:09;101526.84;;;21.81;100.00
28004;BME280;15330;51.234;6.754;2023-08-20T02:58:35;101523.13;;;21.76;100.00
28004;BME280;15330;51.234;6.754;2023-08-20T03:01:00;101524.84;;;21.70;100.00
28004;BME280;15330;51.234;6.754;2023-08-20T03:03:26;101531.59;;;21.61;100.00
28004;BME280;15330;51.234;6.754;2023-08-20T03:05:51;101533.88;;;21.64;100.00
28004;BME280;15330;51.234;6.754;2023-08-20T03:08:16;101535.72;;;21.70;100.00
28004;BME280;15330;51.234;6.754;2023-08-20T03:10:42;101535.00;;;21.50;100.00
28004;BME280;15330;51.234;6.754;2023-08-20T03:13:07;101539.75;;;21.61;100.00
28004;BME280;15330;51.234;6.754;2023-08-20T03:15:33;101538.34;;;21.58;100.00
28004;BME280;15330;51.234;6.754;2023-08-20T03:17:58;101529.75;;;21.55;100.00
28004;BME280;15330;51.234;6.754;2023-08-20T03:20:23;101536.84;;;21.63;100.00
28004;BME280;15330;51.234;6.754;2023-08-20T03:22:49;101536.88;;;21.56;100.00
28004;BME280;15330;51.234;6.754;2023-08-20T03:25:14;101541.28;;;21.57;100.00
28004;BME280;15330;51.234;6.754;2023-08-20T03:27:40;101545.22;;;21.61;100.00
28004;BME280;15330;51.234;6.754;2023-08-20T03:30:07;101540.22;;;21.58;100.00
28004;BME280;15330;51.234;6.754;2023-08-20T03:32:32;101544.25;;;21.49;100.00
28004;BME280;15330;51.234;6.754;2023-08-20T03:34:58;101538.34;;;21.52;100.00
28004;BME280;15330;51.234;6.754;2023-08-20T03:37:25;101544.47;;;21.47;100.00
28004;BME280;15330;51.234;6.754;2023-08-20T03:39:50;101543.19;;;21.50;100.00
28004;BME280;15330;51.234;6.754;2023-08-20T03:42:16;101551.81;;;21.47;100.00
28004;BME280;15330;51.234;6.754;2023-08-20T03:44:41;101531.72;;;21.41;100.00
28004;BME280;15330;51.234;6.754;2023-08-20T03:47:06;101551.59;;;21.42;100.00
28004;BME280;15330;51.234;6.754;2023-08-20T03:49:32;101538.44;;;21.32;100.00
28004;BME280;15330;51.234;6.754;2023-08-20T03:51:57;101547.66;;;21.31;100.00
28004;BME280;15330;51.234;6.754;2023-08-20T03:54:22;101553.78;;;21.27;100.00
28004;BME280;15330;51.234;6.754;2023-08-20T03:56:48;101547.25;;;21.34;100.00
28004;BME280;15330;51.234;6.754;2023-08-20T03:59:13;101548.28;;;21.33;100.00
28004;BME280;15330;51.234;6.754;2023-08-20T04:01:38;101543.09;;;21.25;100.00
28004;BME280;15330;51.234;6.754;2023-08-20T04:04:04;101543.94;;;21.19;100.00
28004;BME280;15330;51.234;6.754;2023-08-20T04:06:29;101545.81;;;21.18;100.00
28004;BME280;15330;51.234;6.754;2023-08-20T04:08:55;101545.00;;;21.18;100.00
28004;BME280;15330;51.234;6.754;2023-08-20T04:11:20;101552.31;;;21.17;100.00
28004;BME280;15330;51.234;6.754;2023-08-20T04:13:46;101555.88;;;21.24;100.00
28004;BME280;15330;51.234;6.754;2023-08-20T04:16:12;101550.84;;;21.28;100.00
28004;BME280;15330;51.234;6.754;2023-08-20T04:18:38;101554.63;;;21.20;100.00
28004;BME280;15330;51.234;6.754;2023-08-20T04:21:04;101562.78;;;21.20;100.00
28004;BME280;15330;51.234;6.754;2023-08-20T04:23:29;101564.03;;;21.24;100.00
28004;BME280;15330;51.234;6.754;2023-08-20T04:25:55;101565.06;;;21.23;100.00
28004;BME280;15330;51.234;6.754;2023-08-20T04:28:20;101569.06;;;21.28;100.00
28004;BME280;15330;51.234;6.754;2023-08-20T04:30:45;101563.63;;;21.28;100.00
28004;BME280;15330;51.234;6.754;2023-08-20T04:33:11;101562.16;;;21.25;100.00
28004;BME280;15330;51.234;6.754;2023-08-20T04:35:36;101554.41;;;21.22;100.00
28004;BME280;15330;51.234;6.754;2023-08-20T04:38:02;101566.75;;;21.11;100.00
28004;BME280;15330;51.234;6.754;2023-08-20T04:40:28;101567.81;;;21.17;100.00
28004;BME280;15330;51.234;6.754;2023-08-20T04:42:53;101564.66;;;21.27;100.00
28004;BME280;15330;51.234;6.754;2023-08-20T04:45:19;101567.81;;;21.23;100.00
28004;BME280;15330;51.234;6.754;2023-08-20T04:47:45;101563.19;;;21.24;100.00
28004;BME280;15330;51.234;6.754;2023-08-20T04:50:11;101566.97;;;21.10;100.00
28004;BME280;15330;51.234;6.754;2023-08-20T04:52:36;101572.41;;;21.10;100.00
28004;BME280;15330;51.234;6.754;2023-08-20T04:55:02;101570.31;;;21.18;100.00
28004;BME280;15330;51.234;6.754;2023-08-20T04:57:28;101579.72;;;21.22;100.00
28004;BME280;15330;51.234;6.754;2023-08-20T04:59:53;101575.97;;;21.23;100.00
28004;BME280;15330;51.234;6.754;2023-08-20T05:02:19;101576.81;;;21.24;100.00
28004;BME280;15330;51.234;6.754;2023-08-20T05:04:44;101576.38;;;21.20;100.00
28004;BME280;15330;51.234;6.754;2023-08-20T05:07:10;101577.84;;;21.23;100.00
28004;BME280;15330;51.234;6.754;2023-08-20T05:09:35;101590.19;;;21.26;100.00
28004;BME280;15330;51.234;6.754;2023-08-20T05:12:01;101582.44;;;21.22;100.00
28004;BME280;15330;51.234;6.754;2023-08-20T05:14:27;101577.63;;;21.24;100.00
28004;BME280;15330;51.234;6.754;2023-08-20T05:16:52;101568.66;;;21.11;100.00
28004;BME280;15330;51.234;6.754;2023-08-20T05:19:18;101561.56;;;21.03;100.00
28004;BME280;15330;51.234;6.754;2023-08-20T05:21:43;101577.63;;;21.18;100.00
28004;BME280;15330;51.234;6.754;2023-08-20T05:24:08;101579.72;;;21.16;100.00
28004;BME280;15330;51.234;6.754;2023-08-20T05:26:34;101582.63;;;21.34;100.00
28004;BME280;15330;51.234;6.754;2023-08-20T05:28:59;101589.91;;;21.47;100.00
28004;BME280;15330;51.234;6.754;2023-08-20T05:31:25;101582.59;;;21.41;100.00
28004;BME280;15330;51.234;6.754;2023-08-20T05:33:50;101583.16;;;21.56;100.00
28004;BME280;15330;51.234;6.754;2023-08-20T05:36:16;101577.50;;;21.51;100.00
28004;BME280;15330;51.234;6.754;2023-08-20T05:38:41;101578.91;;;21.67;100.00
28004;BME280;15330;51.234;6.754;2023-08-20T05:41:09;101583.28;;;21.74;99.32
28004;BME280;15330;51.234;6.754;2023-08-20T05:43:35;101585.41;;;21.66;99.04
28004;BME280;15330;51.234;6.754;2023-08-20T05:46:02;101578.41;;;21.83;100.00
28004;BME280;15330;51.234;6.754;2023-08-20T05:48:28;101585.78;;;22.14;99.46
28004;BME280;15330;51.234;6.754;2023-08-20T05:50:53;101584.53;;;22.41;97.95
28004;BME280;15330;51.234;6.754;2023-08-20T05:53:19;101584.97;;;22.63;97.19
28004;BME280;15330;51.234;6.754;2023-08-20T05:55:44;101598.44;;;22.83;96.58
28004;BME280;15330;51.234;6.754;2023-08-20T05:58:10;101587.31;;;23.02;95.25
28004;BME280;15330;51.234;6.754;2023-08-20T06:00:36;101584.81;;;23.19;94.51
28004;BME280;15330;51.234;6.754;2023-08-20T06:03:01;101594.81;;;23.43;92.79
28004;BME280;15330;51.234;6.754;2023-08-20T06:05:27;101582.13;;;23.49;92.11
28004;BME280;15330;51.234;6.754;2023-08-20T06:07:52;101594.88;;;23.73;90.18
28004;BME280;15330;51.234;6.754;2023-08-20T06:10:17;101606.19;;;23.77;90.27
28004;BME280;15330;51.234;6.754;2023-08-20T06:12:43;101602.78;;;23.93;87.78
28004;BME280;15330;51.234;6.754;2023-08-20T06:15:08;101595.13;;;24.13;88.88
28004;BME280;15330;51.234;6.754;2023-08-20T06:17:34;101600.66;;;23.95;86.27
28004;BME280;15330;51.234;6.754;2023-08-20T06:19:59;101605.00;;;24.68;87.88
28004;BME280;15330;51.234;6.754;2023-08-20T06:22:25;101608.13;;;24.95;85.54
28004;BME280;15330;51.234;6.754;2023-08-20T06:24:50;101612.88;;;24.99;84.84
28004;BME280;15330;51.234;6.754;2023-08-20T06:27:15;101604.53;;;24.59;83.85
28004;BME280;15330;51.234;6.754;2023-08-20T06:29:41;101605.56;;;24.81;84.73
28004;BME280;15330;51.234;6.754;2023-08-20T06:32:06;101589.34;;;25.38;88.48
28004;BME280;15330;51.234;6.754;2023-08-20T06:34:33;101613.63;;;25.86;85.35
28004;BME280;15330;51.234;6.754;2023-08-20T06:36:59;101617.94;;;26.11;82.59
28004;BME280;15330;51.234;6.754;2023-08-20T06:39:24;101610.09;;;26.48;81.63
28004;BME280;15330;51.234;6.754;2023-08-20T06:41:50;101617.84;;;26.51;78.68
28004;BME280;15330;51.234;6.754;2023-08-20T06:44:15;101605.34;;;26.60;78.67
28004;BME280;15330;51.234;6.754;2023-08-20T06:46:40;101603.19;;;26.95;78.13
28004;BME280;15330;51.234;6.754;2023-08-20T06:49:06;101618.78;;;27.12;75.72
28004;BME280;15330;51.234;6.754;2023-08-20T06:51:32;101616.38;;;27.15;76.83
28004;BME280;15330;51.234;6.754;2023-08-20T06:53:57;101618.72;;;26.90;73.53
28004;BME280;15330;51.234;6.754;2023-08-20T06:56:23;101621.81;;;25.58;80.91
28004;BME280;15330;51.234;6.754;2023-08-20T06:58:48;101627.25;;;25.81;78.96
28004;BME280;15330;51.234;6.754;2023-08-20T07:01:13;101623.50;;;26.44;75.61
28004;BME280;15330;51.234;6.754;2023-08-20T07:03:40;101626.25;;;26.78;75.31
28004;BME280;15330;51.234;6.754;2023-08-20T07:06:06;101628.06;;;26.89;76.92
28004;BME280;15330;51.234;6.754;2023-08-20T07:08:34;101632.81;;;27.54;75.63
28004;BME280;15330;51.234;6.754;2023-08-20T07:10:59;101621.13;;;27.03;71.71
28004;BME280;15330;51.234;6.754;2023-08-20T07:13:25;101623.03;;;27.41;72.39
28004;BME280;15330;51.234;6.754;2023-08-20T07:15:50;101619.84;;;27.49;75.32
28004;BME280;15330;51.234;6.754;2023-08-20T07:18:16;101622.78;;;28.13;70.96
28004;BME280;15330;51.234;6.754;2023-08-20T07:20:42;101623.88;;;28.12;71.05
28004;BME280;15330;51.234;6.754;2023-08-20T07:23:08;101617.63;;;28.80;69.99
28004;BME280;15330;51.234;6.754;2023-08-20T07:25:39;101616.03;;;28.58;70.09
28004;BME280;15330;51.234;6.754;2023-08-20T07:28:06;101615.00;;;29.01;68.24
28004;BME280;15330;51.234;6.754;2023-08-20T07:30:32;101620.38;;;29.28;68.35
28004;BME280;15330;51.234;6.754;2023-08-20T07:32:57;101626.38;;;29.67;67.65
28004;BME280;15330;51.234;6.754;2023-08-20T07:35:23;101626.16;;;29.93;65.38
28004;BME280;15330;51.234;6.754;2023-08-20T07:37:49;101620.44;;;30.10;64.54
28004;BME280;15330;51.234;6.754;2023-08-20T07:40:14;101625.16;;;30.30;64.28
28004;BME280;15330;51.234;6.754;2023-08-20T07:42:40;101629.56;;;30.41;62.69
28004;BME280;15330;51.234;6.754;2023-08-20T07:45:06;101629.28;;;30.48;62.09
28004;BME280;15330;51.234;6.754;2023-08-20T07:47:32;101625.53;;;29.66;61.99
28004;BME280;15330;51.234;6.754;2023-08-20T07:49:58;101620.59;;;29.16;69.14
28004;BME280;15330;51.234;6.754;2023-08-20T07:52:23;101629.28;;;30.27;62.81
28004;BME280;15330;51.234;6.754;2023-08-20T07:54:49;101628.44;;;30.37;60.73
28004;BME280;15330;51.234;6.754;2023-08-20T07:57:14;101616.94;;;29.52;62.59
28004;BME280;15330;51.234;6.754;2023-08-20T07:59:39;101616.59;;;28.92;64.95
28004;BME280;15330;51.234;6.754;2023-08-20T08:02:05;101619.59;;;28.90;66.43
28004;BME280;15330;51.234;6.754;2023-08-20T08:04:30;101626.78;;;30.11;62.22
28004;BME280;15330;51.234;6.754;2023-08-20T08:06:56;101627.34;;;30.18;62.79
28004;BME280;15330;51.234;6.754;2023-08-20T08:09:27;101626.81;;;30.77;61.70
28004;BME280;15330;51.234;6.754;2023-08-20T08:11:53;101634.50;;;30.34;57.66
28004;BME280;15330;51.234;6.754;2023-08-20T08:14:18;101630.88;;;30.03;58.45
28004;BME280;15330;51.234;6.754;2023-08-20T08:16:45;101624.84;;;31.13;59.56
28004;BME280;15330;51.234;6.754;2023-08-20T08:19:10;101630.59;;;31.06;60.89
28004;BME280;15330;51.234;6.754;2023-08-20T08:21:36;101629.31;;;31.68;56.09
28004;BME280;15330;51.234;6.754;2023-08-20T08:24:01;101630.81;;;31.45;58.54
28004;BME280;15330;51.234;6.754;2023-08-20T08:26:27;101625.72;;;31.67;56.30
28004;BME280;15330;51.234;6.754;2023-08-20T08:28:53;101625.38;;;31.15;57.04
28004;BME280;15330;51.234;6.754;2023-08-20T08:31:18;101626.31;;;31.59;55.35
28004;BME280;15330;51.234;6.754;2023-08-20T08:33:43;101636.78;;;31.72;54.06
28004;BME280;15330;51.234;6.754;2023-08-20T08:36:09;101628.22;;;32.13;57.21
28004;BME280;15330;51.234;6.754;2023-08-20T08:38:34;101635.47;;;32.48;56.12
28004;BME280;15330;51.234;6.754;2023-08-20T08:41:03;101637.88;;;32.21;56.13
28004;BME280;15330;51.234;6.754;2023-08-20T08:43:29;101630.13;;;30.38;57.82
28004;BME280;15330;51.234;6.754;2023-08-20T08:45:57;101630.34;;;29.96;60.33
28004;BME280;15330;51.234;6.754;2023-08-20T08:48:24;101627.69;;;31.57;58.02
28004;BME280;15330;51.234;6.754;2023-08-20T08:50:51;101624.16;;;32.00;57.24
28004;BME280;15330;51.234;6.754;2023-08-20T08:53:17;101635.88;;;32.65;56.09
28004;BME280;15330;51.234;6.754;2023-08-20T08:55:43;101627.28;;;31.89;54.53
28004;BME280;15330;51.234;6.754;2023-08-20T08:58:08;101625.28;;;32.72;55.17
28004;BME280;15330;51.234;6.754;2023-08-20T09:00:34;101629.66;;;33.55;52.55
28004;BME280;15330;51.234;6.754;2023-08-20T09:02:59;101633.06;;;33.28;51.06
28004;BME280;15330;51.234;6.754;2023-08-20T09:05:25;101635.19;;;33.79;52.74
28004;BME280;15330;51.234;6.754;2023-08-20T09:07:56;101633.63;;;33.49;51.12
28004;BME280;15330;51.234;6.754;2023-08-20T09:10:27;101631.84;;;33.58;51.01
28004;BME280;15330;51.234;6.754;2023-08-20T09:12:54;101634.16;;;33.51;50.41
28004;BME280;15330;51.234;6.754;2023-08-20T09:15:21;101637.94;;;32.84;50.64
28004;BME280;15330;51.234;6.754;2023-08-20T09:17:47;101640.81;;;32.73;50.35
28004;BME280;15330;51.234;6.754;2023-08-20T09:20:12;101647.94;;;32.45;51.38
28004;BME280;15330;51.234;6.754;2023-08-20T09:22:38;101644.47;;;32.30;51.89
28004;BME280;15330;51.234;6.754;2023-08-20T09:25:03;101643.91;;;32.33;51.79
28004;BME280;15330;51.234;6.754;2023-08-20T09:27:29;101641.16;;;31.84;51.79
28004;BME280;15330;51.234;6.754;2023-08-20T09:30:03;101648.72;;;31.58;52.59
28004;BME280;15330;51.234;6.754;2023-08-20T09:32:28;101637.19;;;31.35;53.44
28004;BME280;15330;51.234;6.754;2023-08-20T09:34:55;101642.72;;;31.41;53.96
28004;BME280;15330;51.234;6.754;2023-08-20T09:37:22;101640.66;;;30.61;53.75
28004;BME280;15330;51.234;6.754;2023-08-20T09:39:49;101644.75;;;30.39;54.63
28004;BME280;15330;51.234;6.754;2023-08-20T09:42:15;101646.13;;;30.36;56.25
28004;BME280;15330;51.234;6.754;2023-08-20T09:44:42;101648.06;;;30.20;54.29
28004;BME280;15330;51.234;6.754;2023-08-20T09:47:13;101648.72;;;29.75;57.35
28004;BME280;15330;51.234;6.754;2023-08-20T09:49:41;101652.13;;;30.03;57.27
28004;BME280;15330;51.234;6.754;2023-08-20T09:52:11;101654.09;;;30.17;55.67
28004;BME280;15330;51.234;6.754;2023-08-20T09:57:17;101658.22;;;31.31;53.67
28004;BME280;15330;51.234;6.754;2023-08-20T09:59:47;101660.81;;;30.62;53.36
28004;BME280;15330;51.234;6.754;2023-08-20T10:02:14;101654.09;;;31.19;54.02
28004;BME280;15330;51.234;6.754;2023-08-20T10:04:42;101659.06;;;31.07;52.76
28004;BME280;15330;51.234;6.754;2023-08-20T10:07:08;101656.06;;;31.13;51.20
28004;BME280;15330;51.234;6.754;2023-08-20T10:09:34;101648.72;;;31.63;51.31
28004;BME280;15330;51.234;6.754;2023-08-20T10:12:00;101659.00;;;32.06;51.33
28004;BME280;15330;51.234;6.754;2023-08-20T10:14:26;101655.22;;;32.36;51.54
28004;BME280;15330;51.234;6.754;2023-08-20T10:16:52;101664.13;;;32.67;50.59
28004;BME280;15330;51.234;6.754;2023-08-20T10:19:19;101661.56;;;33.05;50.16
28004;BME280;15330;51.234;6.754;2023-08-20T10:21:45;101652.28;;;32.91;46.96
28004;BME280;15330;51.234;6.754;2023-08-20T10:24:17;101661.22;;;32.83;46.01
28004;BME280;15330;51.234;6.754;2023-08-20T10:26:47;101649.63;;;33.04;47.92
28004;BME280;15330;51.234;6.754;2023-08-20T10:29:35;101656.63;;;32.34;47.38
28004;BME280;15330;51.234;6.754;2023-08-20T10:32:08;101644.19;;;31.87;48.15
28004;BME280;15330;51.234;6.754;2023-08-20T10:34:38;101640.75;;;32.05;48.61
28004;BME280;15330;51.234;6.754;2023-08-20T10:37:13;101644.88;;;33.10;46.37
28004;BME280;15330;51.234;6.754;2023-08-20T10:39:39;101647.13;;;32.79;47.57
28004;BME280;15330;51.234;6.754;2023-08-20T10:42:08;101643.16;;;33.14;46.39
28004;BME280;15330;51.234;6.754;2023-08-20T10:47:24;101652.22;;;33.25;46.05
28004;BME280;15330;51.234;6.754;2023-08-20T10:49:54;101641.72;;;30.81;49.61
28004;BME280;15330;51.234;6.754;2023-08-20T10:52:22;101641.03;;;31.45;49.04
28004;BME280;15330;51.234;6.754;2023-08-20T10:54:52;101650.78;;;31.96;48.89
28004;BME280;15330;51.234;6.754;2023-08-20T10:57:18;101647.38;;;31.50;47.72
28004;BME280;15330;51.234;6.754;2023-08-20T10:59:58;101657.19;;;31.87;47.94
28004;BME280;15330;51.234;6.754;2023-08-20T11:02:27;101651.66;;;31.12;49.18
28004;BME280;15330;51.234;6.754;2023-08-20T11:04:53;101656.94;;;30.58;49.99
28004;BME280;15330;51.234;6.754;2023-08-20T11:07:19;101656.09;;;30.68;52.72
28004;BME280;15330;51.234;6.754;2023-08-20T11:09:45;101648.84;;;31.07;53.25
28004;BME280;15330;51.234;6.754;2023-08-20T11:12:14;101656.63;;;31.00;50.67
28004;BME280;15330;51.234;6.754;2023-08-20T11:14:40;101654.97;;;31.04;50.35
28004;BME280;15330;51.234;6.754;2023-08-20T11:17:06;101661.63;;;30.68;51.09
28004;BME280;15330;51.234;6.754;2023-08-20T11:19:33;101651.56;;;31.43;51.32
28004;BME280;15330;51.234;6.754;2023-08-20T11:21:59;101649.69;;;31.08;50.59
28004;BME280;15330;51.234;6.754;2023-08-20T11:24:29;101650.53;;;30.98;50.07
28004;BME280;15330;51.234;6.754;2023-08-20T11:26:54;101659.50;;;31.64;49.96
28004;BME280;15330;51.234;6.754;2023-08-20T11:29:22;101655.97;;;31.38;51.07
28004;BME280;15330;51.234;6.754;2023-08-20T11:31:50;101656.44;;;31.61;51.79
28004;BME280;15330;51.234;6.754;2023-08-20T11:34:16;101652.56;;;31.72;51.49
28004;BME280;15330;51.234;6.754;2023-08-20T11:36:43;101651.00;;;31.35;51.74
28004;BME280;15330;51.234;6.754;2023-08-20T11:39:09;101651.38;;;31.09;52.45
28004;BME280;15330;51.234;6.754;2023-08-20T11:41:38;101643.50;;;31.51;51.23
28004;BME280;15330;51.234;6.754;2023-08-20T11:44:04;101642.16;;;31.44;51.67
28004;BME280;15330;51.234;6.754;2023-08-20T11:46:29;101644.28;;;31.62;51.62
28004;BME280;15330;51.234;6.754;2023-08-20T11:49:13;101637.16;;;32.00;50.07
28004;BME280;15330;51.234;6.754;2023-08-20T11:51:44;101638.97;;;30.65;51.57
28004;BME280;15330;51.234;6.754;2023-08-20T11:54:12;101640.38;;;31.73;50.58
28004;BME280;15330;51.234;6.754;2023-08-20T11:56:49;101640.94;;;32.19;48.07
28004;BME280;15330;51.234;6.754;2023-08-20T11:59:16;101637.66;;;31.63;48.81
28004;BME280;15330;51.234;6.754;2023-08-20T12:01:42;101630.22;;;31.48;48.27
28004;BME280;15330;51.234;6.754;2023-08-20T12:04:09;101633.00;;;32.02;48.06
28004;BME280;15330;51.234;6.754;2023-08-20T12:06:36;101636.25;;;32.15;46.76
28004;BME280;15330;51.234;6.754;2023-08-20T12:09:21;101626.38;;;31.39;47.49
28004;BME280;15330;51.234;6.754;2023-08-20T12:11:54;101624.97;;;31.47;47.29
28004;BME280;15330;51.234;6.754;2023-08-20T12:14:23;101625.59;;;31.33;48.47
28004;BME280;15330;51.234;6.754;2023-08-20T12:16:49;101625.91;;;31.17;49.20
28004;BME280;15330;51.234;6.754;2023-08-20T12:19:16;101609.31;;;31.22;48.93
28004;BME280;15330;51.234;6.754;2023-08-20T12:21:41;101617.66;;;31.12;49.82
28004;BME280;15330;51.234;6.754;2023-08-20T12:24:09;101615.66;;;31.27;50.15
28004;BME280;15330;51.234;6.754;2023-08-20T12:26:34;101617.34;;;31.23;49.51
28004;BME280;15330;51.234;6.754;2023-08-20T12:29:03;101622.31;;;31.06;49.45
28004;BME280;15330;51.234;6.754;2023-08-20T12:31:28;101619.34;;;30.67;51.96
28004;BME280;15330;51.234;6.754;2023-08-20T12:33:54;101622.69;;;30.59;51.68
28004;BME280;15330;51.234;6.754;2023-08-20T12:36:19;101610.16;;;31.07;51.00
28004;BME280;15330;51.234;6.754;2023-08-20T12:38:45;101613.50;;;31.09;49.60
28004;BME280;15330;51.234;6.754;2023-08-20T12:41:10;101619.09;;;30.58;50.95
28004;BME280;15330;51.234;6.754;2023-08-20T12:43:36;101612.34;;;29.78;52.16
28004;BME280;15330;51.234;6.754;2023-08-20T12:46:01;101611.38;;;29.42;52.97
28004;BME280;15330;51.234;6.754;2023-08-20T12:48:26;101603.75;;;29.80;52.64
28004;BME280;15330;51.234;6.754;2023-08-20T12:50:52;101612.69;;;30.22;51.94
28004;BME280;15330;51.234;6.754;2023-08-20T12:53:17;101607.44;;;30.01;51.74
28004;BME280;15330;51.234;6.754;2023-08-20T12:55:42;101589.16;;;29.69;51.66
28004;BME280;15330;51.234;6.754;2023-08-20T12:58:08;101601.66;;;30.17;52.07